Terminal Aerodrome Forecast
Issued by NWS Cleveland, OH

Home | Current Version | Previous Version | Graphics & Text | Print | Product List | Glossary On
Versions: 1 2 3 4 5 6 7 8 9 10 11 12 13 14 15 16 17
000
FTUS41 KCLE 262338
TAFYNG
TAF
KYNG 262338Z 2700/2724 20010G20KT P6SM BKN050 OVC120
      TEMPO 2700/2704 3SM TSRA OVC050CB
     FM270400 20010KT P6SM BKN080
     FM271000 20008KT 4SM BR SCT004
     FM271400 22010G20KT P6SM SCT015
     FM271600 22015G25KT P6SM BKN040
     FM271900 24015G25KT P6SM BKN050=

USA.gov is the U.S. government's official web portal to all federal, state and local government web resources and services.